sensor_id;sensor_type;location;lat;lon;timestamp;temperature;humidity
17307;DHT22;8771;48.048;7.682;2022-10-01T00:04:18;10.60;75.80
17307;DHT22;8771;48.048;7.682;2022-10-01T00:09:20;10.60;75.70
17307;DHT22;8771;48.048;7.682;2022-10-01T00:14:21;10.70;75.80
17307;DHT22;8771;48.048;7.682;2022-10-01T00:19:25;10.70;76.50
17307;DHT22;8771;48.048;7.682;2022-10-01T00:24:27;10.70;75.70
17307;DHT22;8771;48.048;7.682;2022-10-01T00:29:29;10.70;75.80
17307;DHT22;8771;48.048;7.682;2022-10-01T00:34:33;10.70;75.80
17307;DHT22;8771;48.048;7.682;2022-10-01T00:39:35;10.80;75.80
17307;DHT22;8771;48.048;7.682;2022-10-01T00:44:38;10.80;75.70
17307;DHT22;8771;48.048;7.682;2022-10-01T00:49:42;10.80;75.80
17307;DHT22;8771;48.048;7.682;2022-10-01T00:54:48;10.90;75.80
17307;DHT22;8771;48.048;7.682;2022-10-01T00:59:51;10.90;75.70
17307;DHT22;8771;48.048;7.682;2022-10-01T01:04:55;11.00;75.70
17307;DHT22;8771;48.048;7.682;2022-10-01T01:09:59;11.00;75.70
17307;DHT22;8771;48.048;7.682;2022-10-01T01:15:09;11.00;75.60
17307;DHT22;8771;48.048;7.682;2022-10-01T01:20:31;11.10;75.70
17307;DHT22;8771;48.048;7.682;2022-10-01T01:25:45;11.10;75.60
17307;DHT22;8771;48.048;7.682;2022-10-01T01:30:53;11.10;75.50
17307;DHT22;8771;48.048;7.682;2022-10-01T01:36:00;11.10;75.50
17307;DHT22;8771;48.048;7.682;2022-10-01T01:41:05;11.20;75.50
17307;DHT22;8771;48.048;7.682;2022-10-01T01:46:10;11.20;75.50
17307;DHT22;8771;48.048;7.682;2022-10-01T01:51:17;11.20;75.50
17307;DHT22;8771;48.048;7.682;2022-10-01T01:56:21;11.20;75.50
17307;DHT22;8771;48.048;7.682;2022-10-01T02:01:37;11.20;75.50
17307;DHT22;8771;48.048;7.682;2022-10-01T02:06:54;11.20;75.40
17307;DHT22;8771;48.048;7.682;2022-10-01T02:12:10;11.20;75.40
17307;DHT22;8771;48.048;7.682;2022-10-01T02:17:23;11.30;75.40
17307;DHT22;8771;48.048;7.682;2022-10-01T02:22:35;11.40;75.30
17307;DHT22;8771;48.048;7.682;2022-10-01T02:27:43;11.40;75.20
17307;DHT22;8771;48.048;7.682;2022-10-01T02:32:49;11.40;75.20
17307;DHT22;8771;48.048;7.682;2022-10-01T02:37:53;11.40;75.20
17307;DHT22;8771;48.048;7.682;2022-10-01T02:42:59;11.40;75.20
17307;DHT22;8771;48.048;7.682;2022-10-01T02:48:06;11.40;75.10
17307;DHT22;8771;48.048;7.682;2022-10-01T02:53:11;11.50;75.20
17307;DHT22;8771;48.048;7.682;2022-10-01T02:58:17;11.50;75.10
17307;DHT22;8771;48.048;7.682;2022-10-01T03:03:21;11.50;75.10
17307;DHT22;8771;48.048;7.682;2022-10-01T03:08:25;11.50;75.10
17307;DHT22;8771;48.048;7.682;2022-10-01T03:13:27;11.60;75.10
17307;DHT22;8771;48.048;7.682;2022-10-01T03:18:31;11.60;75.00
17307;DHT22;8771;48.048;7.682;2022-10-01T03:23:32;11.60;75.00
17307;DHT22;8771;48.048;7.682;2022-10-01T03:28:34;11.60;74.90
17307;DHT22;8771;48.048;7.682;2022-10-01T03:33:37;11.60;74.90
17307;DHT22;8771;48.048;7.682;2022-10-01T03:38:40;11.60;74.90
17307;DHT22;8771;48.048;7.682;2022-10-01T03:43:42;11.70;74.90
17307;DHT22;8771;48.048;7.682;2022-10-01T03:48:45;11.70;74.80
17307;DHT22;8771;48.048;7.682;2022-10-01T03:53:47;11.70;74.80
17307;DHT22;8771;48.048;7.682;2022-10-01T03:58:50;11.70;74.80
17307;DHT22;8771;48.048;7.682;2022-10-01T04:03:53;11.80;74.90
17307;DHT22;8771;48.048;7.682;2022-10-01T04:08:55;11.80;74.90
17307;DHT22;8771;48.048;7.682;2022-10-01T04:13:57;11.80;74.80
17307;DHT22;8771;48.048;7.682;2022-10-01T04:19:01;11.80;74.80
17307;DHT22;8771;48.048;7.682;2022-10-01T04:24:03;11.90;74.80
17307;DHT22;8771;48.048;7.682;2022-10-01T04:29:05;11.90;74.80
17307;DHT22;8771;48.048;7.682;2022-10-01T04:34:09;11.80;74.80
17307;DHT22;8771;48.048;7.682;2022-10-01T04:39:11;11.80;74.80
17307;DHT22;8771;48.048;7.682;2022-10-01T04:44:12;11.80;74.80
17307;DHT22;8771;48.048;7.682;2022-10-01T04:49:16;11.80;74.90
17307;DHT22;8771;48.048;7.682;2022-10-01T04:54:18;11.80;74.90
17307;DHT22;8771;48.048;7.682;2022-10-01T04:59:20;11.80;74.90
17307;DHT22;8771;48.048;7.682;2022-10-01T05:04:24;11.80;75.00
17307;DHT22;8771;48.048;7.682;2022-10-01T05:09:26;11.80;75.00
17307;DHT22;8771;48.048;7.682;2022-10-01T05:14:28;11.80;75.00
17307;DHT22;8771;48.048;7.682;2022-10-01T05:19:32;11.80;75.00
17307;DHT22;8771;48.048;7.682;2022-10-01T05:24:34;11.80;75.10
17307;DHT22;8771;48.048;7.682;2022-10-01T05:29:36;11.80;75.10
17307;DHT22;8771;48.048;7.682;2022-10-01T05:34:39;11.80;75.20
17307;DHT22;8771;48.048;7.682;2022-10-01T05:39:41;11.80;75.10
17307;DHT22;8771;48.048;7.682;2022-10-01T05:44:43;11.80;75.10
17307;DHT22;8771;48.048;7.682;2022-10-01T05:49:47;11.80;75.10
17307;DHT22;8771;48.048;7.682;2022-10-01T05:54:49;11.80;75.10
17307;DHT22;8771;48.048;7.682;2022-10-01T05:59:51;11.80;75.20
17307;DHT22;8771;48.048;7.682;2022-10-01T06:04:54;11.80;75.30
17307;DHT22;8771;48.048;7.682;2022-10-01T06:09:56;11.80;75.30
17307;DHT22;8771;48.048;7.682;2022-10-01T06:14:58;11.70;75.30
17307;DHT22;8771;48.048;7.682;2022-10-01T06:20:01;11.70;75.30
17307;DHT22;8771;48.048;7.682;2022-10-01T06:25:04;11.70;75.30
17307;DHT22;8771;48.048;7.682;2022-10-01T06:30:07;11.70;75.30
17307;DHT22;8771;48.048;7.682;2022-10-01T06:35:10;11.80;75.40
17307;DHT22;8771;48.048;7.682;2022-10-01T06:40:12;11.80;75.40
17307;DHT22;8771;48.048;7.682;2022-10-01T06:45:14;11.80;75.30
17307;DHT22;8771;48.048;7.682;2022-10-01T06:50:18;11.80;75.30
17307;DHT22;8771;48.048;7.682;2022-10-01T06:55:23;11.80;75.40
17307;DHT22;8771;48.048;7.682;2022-10-01T07:00:27;11.80;75.30
17307;DHT22;8771;48.048;7.682;2022-10-01T07:05:31;11.80;75.30
17307;DHT22;8771;48.048;7.682;2022-10-01T07:10:34;11.80;75.30
17307;DHT22;8771;48.048;7.682;2022-10-01T07:15:37;11.90;75.40
17307;DHT22;8771;48.048;7.682;2022-10-01T07:20:40;11.90;75.40
17307;DHT22;8771;48.048;7.682;2022-10-01T07:25:43;11.90;75.30
17307;DHT22;8771;48.048;7.682;2022-10-01T07:30:56;11.90;75.30
17307;DHT22;8771;48.048;7.682;2022-10-01T07:36:01;12.00;75.30
17307;DHT22;8771;48.048;7.682;2022-10-01T07:41:03;12.00;75.30
17307;DHT22;8771;48.048;7.682;2022-10-01T07:46:05;12.00;75.20
17307;DHT22;8771;48.048;7.682;2022-10-01T07:51:08;12.00;75.20
17307;DHT22;8771;48.048;7.682;2022-10-01T07:56:10;12.00;75.20
17307;DHT22;8771;48.048;7.682;2022-10-01T08:01:12;12.10;75.30
17307;DHT22;8771;48.048;7.682;2022-10-01T08:06:17;12.10;75.20
17307;DHT22;8771;48.048;7.682;2022-10-01T08:11:19;12.10;75.20
17307;DHT22;8771;48.048;7.682;2022-10-01T08:16:21;12.10;75.10
17307;DHT22;8771;48.048;7.682;2022-10-01T08:21:24;12.20;75.20
17307;DHT22;8771;48.048;7.682;2022-10-01T08:26:26;12.20;75.10
17307;DHT22;8771;48.048;7.682;2022-10-01T08:31:28;12.30;75.10
17307;DHT22;8771;48.048;7.682;2022-10-01T08:36:31;12.40;75.10
17307;DHT22;8771;48.048;7.682;2022-10-01T08:41:42;12.40;75.00
17307;DHT22;8771;48.048;7.682;2022-10-01T08:46:46;12.50;75.00
17307;DHT22;8771;48.048;7.682;2022-10-01T08:51:54;12.50;75.00
17307;DHT22;8771;48.048;7.682;2022-10-01T08:57:00;12.60;75.00
17307;DHT22;8771;48.048;7.682;2022-10-01T09:02:20;12.70;75.00
17307;DHT22;8771;48.048;7.682;2022-10-01T09:07:44;12.70;74.90
17307;DHT22;8771;48.048;7.682;2022-10-01T09:13:03;12.80;74.90
17307;DHT22;8771;48.048;7.682;2022-10-01T09:18:17;12.80;74.80
17307;DHT22;8771;48.048;7.682;2022-10-01T09:23:27;12.90;74.80
17307;DHT22;8771;48.048;7.682;2022-10-01T09:28:31;13.00;74.80
17307;DHT22;8771;48.048;7.682;2022-10-01T09:33:35;13.10;74.80
17307;DHT22;8771;48.048;7.682;2022-10-01T09:38:40;13.20;74.60
17307;DHT22;8771;48.048;7.682;2022-10-01T09:43:43;13.30;74.60
17307;DHT22;8771;48.048;7.682;2022-10-01T09:48:53;13.30;74.60
17307;DHT22;8771;48.048;7.682;2022-10-01T09:54:02;13.30;74.60
17307;DHT22;8771;48.048;7.682;2022-10-01T09:59:10;13.30;74.70
17307;DHT22;8771;48.048;7.682;2022-10-01T10:04:17;13.40;74.80
17307;DHT22;8771;48.048;7.682;2022-10-01T10:09:26;13.40;74.60
17307;DHT22;8771;48.048;7.682;2022-10-01T10:14:31;13.50;74.60
17307;DHT22;8771;48.048;7.682;2022-10-01T10:19:35;13.60;74.50
17307;DHT22;8771;48.048;7.682;2022-10-01T10:24:39;13.80;74.60
17307;DHT22;8771;48.048;7.682;2022-10-01T10:29:40;13.80;74.40
17307;DHT22;8771;48.048;7.682;2022-10-01T10:34:43;13.90;74.50
17307;DHT22;8771;48.048;7.682;2022-10-01T10:39:49;13.90;74.40
17307;DHT22;8771;48.048;7.682;2022-10-01T10:44:55;14.00;74.40
17307;DHT22;8771;48.048;7.682;2022-10-01T10:50:04;14.10;74.40
17307;DHT22;8771;48.048;7.682;2022-10-01T10:55:21;14.30;74.30
17307;DHT22;8771;48.048;7.682;2022-10-01T11:00:24;14.40;74.20
17307;DHT22;8771;48.048;7.682;2022-10-01T11:05:29;14.50;74.10
17307;DHT22;8771;48.048;7.682;2022-10-01T11:10:44;14.60;74.10
17307;DHT22;8771;48.048;7.682;2022-10-01T11:15:57;14.60;74.10
17307;DHT22;8771;48.048;7.682;2022-10-01T11:21:15;14.70;74.20
17307;DHT22;8771;48.048;7.682;2022-10-01T11:26:28;14.70;74.30
17307;DHT22;8771;48.048;7.682;2022-10-01T11:31:36;14.70;74.30
17307;DHT22;8771;48.048;7.682;2022-10-01T11:36:44;14.80;74.50
17307;DHT22;8771;48.048;7.682;2022-10-01T11:41:57;14.80;74.50
17307;DHT22;8771;48.048;7.682;2022-10-01T11:47:03;14.80;74.50
17307;DHT22;8771;48.048;7.682;2022-10-01T11:52:13;14.80;74.50
17307;DHT22;8771;48.048;7.682;2022-10-01T11:57:18;14.80;74.60
17307;DHT22;8771;48.048;7.682;2022-10-01T12:02:46;14.90;74.60
17307;DHT22;8771;48.048;7.682;2022-10-01T12:07:53;15.00;74.60
17307;DHT22;8771;48.048;7.682;2022-10-01T12:13:03;15.00;74.60
17307;DHT22;8771;48.048;7.682;2022-10-01T12:18:13;15.00;74.50
17307;DHT22;8771;48.048;7.682;2022-10-01T12:23:19;15.00;74.50
17307;DHT22;8771;48.048;7.682;2022-10-01T12:28:26;15.10;74.60
17307;DHT22;8771;48.048;7.682;2022-10-01T12:33:55;15.20;74.60
17307;DHT22;8771;48.048;7.682;2022-10-01T12:39:11;15.20;74.50
17307;DHT22;8771;48.048;7.682;2022-10-01T12:44:37;15.30;74.40
17307;DHT22;8771;48.048;7.682;2022-10-01T12:49:45;15.40;74.30
17307;DHT22;8771;48.048;7.682;2022-10-01T12:54:58;15.60;74.20
17307;DHT22;8771;48.048;7.682;2022-10-01T13:00:09;15.80;74.00
17307;DHT22;8771;48.048;7.682;2022-10-01T13:05:22;15.90;73.90
17307;DHT22;8771;48.048;7.682;2022-10-01T13:10:40;16.00;73.90
17307;DHT22;8771;48.048;7.682;2022-10-01T13:15:47;16.00;73.80
17307;DHT22;8771;48.048;7.682;2022-10-01T13:20:55;16.00;73.80
17307;DHT22;8771;48.048;7.682;2022-10-01T13:26:04;16.00;73.90
17307;DHT22;8771;48.048;7.682;2022-10-01T13:31:12;16.10;74.10
17307;DHT22;8771;48.048;7.682;2022-10-01T13:36:14;16.10;74.20
17307;DHT22;8771;48.048;7.682;2022-10-01T13:41:21;16.10;74.20
17307;DHT22;8771;48.048;7.682;2022-10-01T13:46:28;16.00;74.30
17307;DHT22;8771;48.048;7.682;2022-10-01T13:51:35;16.00;74.40
17307;DHT22;8771;48.048;7.682;2022-10-01T13:56:37;16.00;74.50
17307;DHT22;8771;48.048;7.682;2022-10-01T14:01:41;16.00;74.50
17307;DHT22;8771;48.048;7.682;2022-10-01T14:06:47;16.00;74.60
17307;DHT22;8771;48.048;7.682;2022-10-01T14:11:54;16.00;74.70
17307;DHT22;8771;48.048;7.682;2022-10-01T14:17:20;16.00;74.70
17307;DHT22;8771;48.048;7.682;2022-10-01T14:22:31;16.00;74.70
17307;DHT22;8771;48.048;7.682;2022-10-01T14:27:40;15.90;74.70
17307;DHT22;8771;48.048;7.682;2022-10-01T14:33:14;15.90;74.80
17307;DHT22;8771;48.048;7.682;2022-10-01T14:38:20;15.90;74.90
17307;DHT22;8771;48.048;7.682;2022-10-01T14:43:24;15.80;75.00
17307;DHT22;8771;48.048;7.682;2022-10-01T14:48:30;15.80;75.00
17307;DHT22;8771;48.048;7.682;2022-10-01T14:53:34;15.80;75.00
17307;DHT22;8771;48.048;7.682;2022-10-01T14:58:39;15.70;75.00
17307;DHT22;8771;48.048;7.682;2022-10-01T15:03:44;15.70;75.00
17307;DHT22;8771;48.048;7.682;2022-10-01T15:08:48;15.80;75.00
17307;DHT22;8771;48.048;7.682;2022-10-01T15:13:53;15.80;75.00
17307;DHT22;8771;48.048;7.682;2022-10-01T15:18:59;15.90;75.00
17307;DHT22;8771;48.048;7.682;2022-10-01T15:24:02;15.90;74.90
17307;DHT22;8771;48.048;7.682;2022-10-01T15:29:10;15.90;74.80
17307;DHT22;8771;48.048;7.682;2022-10-01T15:34:16;15.90;74.80
17307;DHT22;8771;48.048;7.682;2022-10-01T15:39:28;16.00;74.80
17307;DHT22;8771;48.048;7.682;2022-10-01T15:44:42;16.00;74.80
17307;DHT22;8771;48.048;7.682;2022-10-01T15:50:00;16.00;74.80
17307;DHT22;8771;48.048;7.682;2022-10-01T15:55:03;16.00;74.80
17307;DHT22;8771;48.048;7.682;2022-10-01T16:00:19;16.10;74.90
17307;DHT22;8771;48.048;7.682;2022-10-01T16:05:25;16.10;74.90
17307;DHT22;8771;48.048;7.682;2022-10-01T16:10:32;16.10;74.90
17307;DHT22;8771;48.048;7.682;2022-10-01T16:15:34;16.10;75.00
17307;DHT22;8771;48.048;7.682;2022-10-01T16:20:39;16.10;75.00
17307;DHT22;8771;48.048;7.682;2022-10-01T16:25:43;16.10;75.00
17307;DHT22;8771;48.048;7.682;2022-10-01T16:30:49;16.00;75.00
17307;DHT22;8771;48.048;7.682;2022-10-01T16:36:05;16.00;75.10
17307;DHT22;8771;48.048;7.682;2022-10-01T16:41:08;16.00;75.20
17307;DHT22;8771;48.048;7.682;2022-10-01T16:46:10;16.00;75.20
17307;DHT22;8771;48.048;7.682;2022-10-01T16:51:13;16.00;75.30
17307;DHT22;8771;48.048;7.682;2022-10-01T16:56:15;15.90;75.30
17307;DHT22;8771;48.048;7.682;2022-10-01T17:01:17;15.90;75.40
17307;DHT22;8771;48.048;7.682;2022-10-01T17:06:21;15.90;75.40
17307;DHT22;8771;48.048;7.682;2022-10-01T17:11:24;15.90;75.40
17307;DHT22;8771;48.048;7.682;2022-10-01T17:16:26;15.80;75.50
17307;DHT22;8771;48.048;7.682;2022-10-01T17:21:30;15.70;75.60
17307;DHT22;8771;48.048;7.682;2022-10-01T17:26:34;15.70;75.80
17307;DHT22;8771;48.048;7.682;2022-10-01T17:31:37;15.60;75.80
17307;DHT22;8771;48.048;7.682;2022-10-01T17:36:45;15.50;76.00
17307;DHT22;8771;48.048;7.682;2022-10-01T17:41:47;15.40;76.00
17307;DHT22;8771;48.048;7.682;2022-10-01T17:46:49;15.30;76.10
17307;DHT22;8771;48.048;7.682;2022-10-01T17:51:52;15.20;76.20
17307;DHT22;8771;48.048;7.682;2022-10-01T17:56:54;15.20;76.30
17307;DHT22;8771;48.048;7.682;2022-10-01T18:01:56;15.10;76.40
17307;DHT22;8771;48.048;7.682;2022-10-01T18:06:59;15.00;76.50
17307;DHT22;8771;48.048;7.682;2022-10-01T18:12:06;15.00;76.50
17307;DHT22;8771;48.048;7.682;2022-10-01T18:17:09;15.00;76.60
17307;DHT22;8771;48.048;7.682;2022-10-01T18:22:12;14.90;76.70
17307;DHT22;8771;48.048;7.682;2022-10-01T18:27:14;14.90;76.70
17307;DHT22;8771;48.048;7.682;2022-10-01T18:32:20;14.80;76.70
17307;DHT22;8771;48.048;7.682;2022-10-01T18:37:32;14.80;76.90
17307;DHT22;8771;48.048;7.682;2022-10-01T18:42:42;14.70;76.90
17307;DHT22;8771;48.048;7.682;2022-10-01T18:47:57;14.70;76.90
17307;DHT22;8771;48.048;7.682;2022-10-01T18:53:25;14.70;77.70
17307;DHT22;8771;48.048;7.682;2022-10-01T18:58:47;14.60;77.00
17307;DHT22;8771;48.048;7.682;2022-10-01T19:04:03;14.60;77.00
17307;DHT22;8771;48.048;7.682;2022-10-01T19:09:23;14.60;77.00
17307;DHT22;8771;48.048;7.682;2022-10-01T19:14:45;14.60;77.00
17307;DHT22;8771;48.048;7.682;2022-10-01T19:19:58;14.50;76.80
17307;DHT22;8771;48.048;7.682;2022-10-01T19:25:11;14.50;77.00
17307;DHT22;8771;48.048;7.682;2022-10-01T19:30:17;14.50;77.00
17307;DHT22;8771;48.048;7.682;2022-10-01T19:35:22;14.50;77.00
17307;DHT22;8771;48.048;7.682;2022-10-01T19:40:32;14.50;77.00
17307;DHT22;8771;48.048;7.682;2022-10-01T19:45:43;14.50;76.90
17307;DHT22;8771;48.048;7.682;2022-10-01T19:50:52;14.50;76.80
17307;DHT22;8771;48.048;7.682;2022-10-01T19:55:59;14.60;76.80
17307;DHT22;8771;48.048;7.682;2022-10-01T20:01:02;14.70;76.70
17307;DHT22;8771;48.048;7.682;2022-10-01T20:06:07;14.70;76.70
17307;DHT22;8771;48.048;7.682;2022-10-01T20:11:19;14.80;76.70
17307;DHT22;8771;48.048;7.682;2022-10-01T20:16:25;14.80;76.60
17307;DHT22;8771;48.048;7.682;2022-10-01T20:21:36;14.80;76.60
17307;DHT22;8771;48.048;7.682;2022-10-01T20:26:45;14.80;76.50
17307;DHT22;8771;48.048;7.682;2022-10-01T20:31:56;14.90;76.60
17307;DHT22;8771;48.048;7.682;2022-10-01T20:37:10;14.80;76.60
17307;DHT22;8771;48.048;7.682;2022-10-01T20:42:22;14.80;76.60
17307;DHT22;8771;48.048;7.682;2022-10-01T20:47:30;14.80;76.60
17307;DHT22;8771;48.048;7.682;2022-10-01T20:52:40;14.90;76.70
17307;DHT22;8771;48.048;7.682;2022-10-01T20:57:49;14.90;76.70
17307;DHT22;8771;48.048;7.682;2022-10-01T21:02:57;14.90;76.80
17307;DHT22;8771;48.048;7.682;2022-10-01T21:08:08;14.90;76.70
17307;DHT22;8771;48.048;7.682;2022-10-01T21:13:16;14.90;76.70
17307;DHT22;8771;48.048;7.682;2022-10-01T21:18:26;14.90;76.80
17307;DHT22;8771;48.048;7.682;2022-10-01T21:23:43;14.90;76.80
17307;DHT22;8771;48.048;7.682;2022-10-01T21:29:05;14.90;76.80
17307;DHT22;8771;48.048;7.682;2022-10-01T21:34:11;14.90;76.90
17307;DHT22;8771;48.048;7.682;2022-10-01T21:39:19;14.90;76.90
17307;DHT22;8771;48.048;7.682;2022-10-01T21:50:26;14.90;77.00
17307;DHT22;8771;48.048;7.682;2022-10-01T21:55:50;14.90;76.90
17307;DHT22;8771;48.048;7.682;2022-10-01T22:01:09;14.90;76.90
17307;DHT22;8771;48.048;7.682;2022-10-01T22:06:18;15.00;76.90
17307;DHT22;8771;48.048;7.682;2022-10-01T22:11:26;15.00;76.90
17307;DHT22;8771;48.048;7.682;2022-10-01T22:16:32;15.00;76.90
17307;DHT22;8771;48.048;7.682;2022-10-01T22:21:41;15.10;76.90
17307;DHT22;8771;48.048;7.682;2022-10-01T22:26:47;15.10;77.00
17307;DHT22;8771;48.048;7.682;2022-10-01T22:31:54;15.10;76.90
17307;DHT22;8771;48.048;7.682;2022-10-01T22:37:04;15.10;76.90
17307;DHT22;8771;48.048;7.682;2022-10-01T22:42:11;15.10;76.90
17307;DHT22;8771;48.048;7.682;2022-10-01T22:47:40;15.00;77.00
17307;DHT22;8771;48.048;7.682;2022-10-01T22:52:56;14.90;77.10
17307;DHT22;8771;48.048;7.682;2022-10-01T22:58:12;14.90;77.20
17307;DHT22;8771;48.048;7.682;2022-10-01T23:03:23;14.80;77.20
17307;DHT22;8771;48.048;7.682;2022-10-01T23:08:36;14.80;77.40
17307;DHT22;8771;48.048;7.682;2022-10-01T23:13:44;14.80;77.40
17307;DHT22;8771;48.048;7.682;2022-10-01T23:18:58;14.70;77.50
17307;DHT22;8771;48.048;7.682;2022-10-01T23:24:19;14.70;77.50
17307;DHT22;8771;48.048;7.682;2022-10-01T23:29:45;14.60;77.50
17307;DHT22;8771;48.048;7.682;2022-10-01T23:34:54;14.60;77.70
17307;DHT22;8771;48.048;7.682;2022-10-01T23:40:04;14.60;77.70
17307;DHT22;8771;48.048;7.682;2022-10-01T23:45:16;14.60;77.70
17307;DHT22;8771;48.048;7.682;2022-10-01T23:50:21;14.60;77.70
17307;DHT22;8771;48.048;7.682;2022-10-01T23:55:38;14.60;77.70
